Time;durP1;ratioP1;P1;durP2;ratioP2;P2;SDS_P1;SDS_P2;PMS_P1;PMS_P2;Temp;Humidity;BMP_temperature;BMP_pressure;BME280_temperature;BME280_humidity;BME280_pressure;Samples;Min_cycle;Max_cycle;Signal;HPM_P1;HPM_P2
2023/04/17 00:01:46;;;;;;;17.70;16.00;;;;;;;;;;5014078;28;20227;-85
2023/04/17 00:04:14;;;;;;;17.80;15.90;;;;;;;;;;5004161;28;20522;-85
2023/04/17 00:06:42;;;;;;;17.93;15.77;;;;;;;;;;5000522;28;20227;-85
2023/04/17 00:09:08;;;;;;;18.23;15.80;;;;;;;;;;5008433;28;20634;-85
2023/04/17 00:11:34;;;;;;;18.43;16.53;;;;;;;;;;5004728;28;20220;-84
2023/04/17 00:13:59;;;;;;;18.10;16.20;;;;;;;;;;5000526;28;20247;-85
2023/04/17 00:16:25;;;;;;;18.93;16.93;;;;;;;;;;5009304;28;20212;-83
2023/04/17 00:18:54;;;;;;;18.23;16.33;;;;;;;;;;5007152;28;20219;-85
2023/04/17 00:21:19;;;;;;;20.90;17.50;;;;;;;;;;4991351;28;20375;-85
2023/04/17 00:23:47;;;;;;;20.07;17.70;;;;;;;;;;4979540;28;20228;-84
2023/04/17 00:26:16;;;;;;;19.43;17.53;;;;;;;;;;5026885;28;20680;-85
2023/04/17 00:28:42;;;;;;;19.83;17.87;;;;;;;;;;4997022;28;20600;-83
2023/04/17 00:31:07;;;;;;;19.20;17.37;;;;;;;;;;5007786;28;20232;-85
2023/04/17 00:33:33;;;;;;;20.03;18.03;;;;;;;;;;4963193;28;20228;-85
2023/04/17 00:35:58;;;;;;;20.37;18.27;;;;;;;;;;5000235;28;20216;-85
2023/04/17 00:38:26;;;;;;;22.90;18.53;;;;;;;;;;4991372;28;20218;-84
2023/04/17 00:40:52;;;;;;;21.30;19.13;;;;;;;;;;4988467;28;20236;-83
2023/04/17 00:43:17;;;;;;;19.47;17.60;;;;;;;;;;5000500;28;20231;-84
2023/04/17 00:45:45;;;;;;;22.10;18.97;;;;;;;;;;4984293;28;20224;-85
2023/04/17 00:48:13;;;;;;;21.70;18.20;;;;;;;;;;5008399;28;20224;-85
2023/04/17 00:50:42;;;;;;;23.40;19.03;;;;;;;;;;4993068;28;20220;-85
2023/04/17 00:53:07;;;;;;;21.23;18.10;;;;;;;;;;4991418;28;20232;-85
2023/04/17 00:55:34;;;;;;;21.50;18.90;;;;;;;;;;4996303;28;20216;-85
2023/04/17 00:58:02;;;;;;;22.50;19.07;;;;;;;;;;5007388;28;20274;-85
2023/04/17 01:00:27;;;;;;;19.97;18.03;;;;;;;;;;4963449;28;20235;-85
2023/04/17 01:02:58;;;;;;;21.80;17.90;;;;;;;;;;4979927;28;20609;-85
2023/04/17 01:05:24;;;;;;;19.93;17.93;;;;;;;;;;5008009;28;20222;-85
2023/04/17 01:07:52;;;;;;;20.63;18.53;;;;;;;;;;5012449;28;20221;-83
2023/04/17 01:10:17;;;;;;;20.10;18.10;;;;;;;;;;4992540;28;20858;-85
2023/04/17 01:12:48;;;;;;;21.50;18.50;;;;;;;;;;5010535;28;20235;-83
2023/04/17 01:15:19;;;;;;;21.00;18.80;;;;;;;;;;5027500;28;20255;-83
2023/04/17 01:17:44;;;;;;;19.43;17.30;;;;;;;;;;5014694;28;20239;-83
2023/04/17 01:20:11;;;;;;;20.80;18.63;;;;;;;;;;5017367;28;20221;-83
2023/04/17 01:22:36;;;;;;;21.03;18.70;;;;;;;;;;5033111;28;20274;-83
2023/04/17 01:25:04;;;;;;;20.83;18.73;;;;;;;;;;5005740;28;20282;-83
2023/04/17 01:27:34;;;;;;;20.07;18.03;;;;;;;;;;4986306;28;20296;-83
2023/04/17 01:30:02;;;;;;;20.67;18.60;;;;;;;;;;5016263;28;20220;-83
2023/04/17 01:32:33;;;;;;;21.67;18.23;;;;;;;;;;5013079;28;20216;-82
2023/04/17 01:34:59;;;;;;;20.77;18.57;;;;;;;;;;5006152;28;20232;-83
2023/04/17 01:37:24;;;;;;;19.43;17.43;;;;;;;;;;5016816;28;20222;-83
2023/04/17 01:39:52;;;;;;;19.20;16.83;;;;;;;;;;5024749;28;20231;-83
2023/04/17 01:42:21;;;;;;;19.77;17.73;;;;;;;;;;5022837;28;20239;-83
2023/04/17 01:44:49;;;;;;;20.07;17.73;;;;;;;;;;5016398;28;20221;-82
2023/04/17 01:47:14;;;;;;;19.60;17.47;;;;;;;;;;5025836;28;20231;-82
2023/04/17 01:49:40;;;;;;;19.70;17.63;;;;;;;;;;5022242;28;20208;-82
2023/04/17 01:52:05;;;;;;;20.73;18.47;;;;;;;;;;5001834;28;20239;-83
2023/04/17 01:54:36;;;;;;;20.10;18.10;;;;;;;;;;5021551;28;20208;-83
2023/04/17 01:57:01;;;;;;;20.27;18.17;;;;;;;;;;5021976;28;20696;-84
2023/04/17 01:59:27;;;;;;;20.80;18.07;;;;;;;;;;5018123;28;20303;-83
2023/04/17 02:01:56;;;;;;;20.50;17.53;;;;;;;;;;4997250;28;20249;-84
2023/04/17 02:04:26;;;;;;;21.27;19.03;;;;;;;;;;5015381;28;20227;-83
2023/04/17 02:06:52;;;;;;;20.33;18.23;;;;;;;;;;4992323;28;20224;-83
2023/04/17 02:09:20;;;;;;;21.83;18.97;;;;;;;;;;5021907;28;20225;-85
2023/04/17 02:11:46;;;;;;;21.00;18.77;;;;;;;;;;5011632;28;20212;-84
2023/04/17 02:14:11;;;;;;;21.20;18.53;;;;;;;;;;5006491;28;20231;-84
2023/04/17 02:16:37;;;;;;;20.67;18.17;;;;;;;;;;5015200;28;20601;-85
2023/04/17 02:19:03;;;;;;;20.60;18.50;;;;;;;;;;5004422;28;20228;-82
2023/04/17 02:21:29;;;;;;;20.47;18.17;;;;;;;;;;5003807;28;20225;-85
2023/04/17 02:23:55;;;;;;;22.07;19.00;;;;;;;;;;5016609;28;20226;-84
2023/04/17 02:26:22;;;;;;;20.67;17.97;;;;;;;;;;4998400;28;20716;-85
2023/04/17 02:28:50;;;;;;;21.83;19.03;;;;;;;;;;4995872;28;20280;-85
2023/04/17 02:31:15;;;;;;;20.63;17.67;;;;;;;;;;4969144;28;20231;-85
2023/04/17 02:33:46;;;;;;;23.03;17.60;;;;;;;;;;4981804;28;20220;-85
2023/04/17 02:36:15;;;;;;;20.60;18.37;;;;;;;;;;4998810;28;20224;-85
2023/04/17 02:38:45;;;;;;;20.90;18.60;;;;;;;;;;4999901;28;20239;-85
2023/04/17 02:41:12;;;;;;;21.30;19.00;;;;;;;;;;4999006;28;20228;-85
2023/04/17 02:43:38;;;;;;;21.70;19.30;;;;;;;;;;4999245;28;20290;-85
2023/04/17 02:46:04;;;;;;;21.80;19.47;;;;;;;;;;5005658;28;20219;-85
2023/04/17 02:48:31;;;;;;;24.97;19.30;;;;;;;;;;4979583;28;20278;-85
2023/04/17 02:50:59;;;;;;;22.47;19.83;;;;;;;;;;4971487;28;20260;-85
2023/04/17 02:53:25;;;;;;;21.93;19.57;;;;;;;;;;4982179;28;20299;-85
2023/04/17 02:55:51;;;;;;;21.80;19.60;;;;;;;;;;4991485;28;20700;-83
2023/04/17 02:58:19;;;;;;;21.33;19.17;;;;;;;;;;4982707;28;20216;-84
2023/04/17 03:00:45;;;;;;;20.20;18.20;;;;;;;;;;4997179;28;20223;-85
2023/04/17 03:03:16;;;;;;;23.80;18.83;;;;;;;;;;4999424;28;20307;-84
2023/04/17 03:05:46;;;;;;;21.23;18.97;;;;;;;;;;5003767;28;20307;-84
2023/04/17 03:08:17;;;;;;;23.17;19.40;;;;;;;;;;4975672;28;20325;-85
2023/04/17 03:10:47;;;;;;;22.27;19.77;;;;;;;;;;5003488;28;20818;-85
2023/04/17 03:13:13;;;;;;;21.07;18.87;;;;;;;;;;4971106;28;20231;-85
2023/04/17 03:15:41;;;;;;;19.57;17.57;;;;;;;;;;4995034;28;20234;-85
2023/04/17 03:18:09;;;;;;;19.87;17.20;;;;;;;;;;5000982;28;20254;-85
2023/04/17 03:20:35;;;;;;;22.77;19.73;;;;;;;;;;4986145;28;20216;-85
2023/04/17 03:23:03;;;;;;;20.43;18.40;;;;;;;;;;4998951;28;20244;-83
2023/04/17 03:25:28;;;;;;;22.33;20.03;;;;;;;;;;4994750;28;20231;-85
2023/04/17 03:27:55;;;;;;;23.27;20.53;;;;;;;;;;4986075;28;20216;-85
2023/04/17 03:30:24;;;;;;;23.63;20.73;;;;;;;;;;4986524;28;20212;-84
2023/04/17 03:32:52;;;;;;;24.77;21.93;;;;;;;;;;4986853;28;20295;-85
2023/04/17 03:35:18;;;;;;;25.17;22.57;;;;;;;;;;5011374;28;20754;-85
2023/04/17 03:37:48;;;;;;;27.03;22.57;;;;;;;;;;4987539;28;20213;-84
2023/04/17 03:40:14;;;;;;;25.17;22.30;;;;;;;;;;4992526;28;20782;-84
2023/04/17 03:42:42;;;;;;;25.07;22.33;;;;;;;;;;4991074;28;20239;-84
2023/04/17 03:45:13;;;;;;;26.40;23.50;;;;;;;;;;5003777;28;20219;-84
2023/04/17 03:47:39;;;;;;;24.73;22.13;;;;;;;;;;5003819;28;20354;-85
2023/04/17 03:50:10;;;;;;;25.23;22.10;;;;;;;;;;5002064;28;20220;-84
2023/04/17 03:52:46;;;;;;;25.50;22.80;;;;;;;;;;5034943;28;20212;-85
2023/04/17 03:55:15;;;;;;;26.33;23.63;;;;;;;;;;4985930;28;20216;-84
2023/04/17 03:57:43;;;;;;;26.10;22.83;;;;;;;;;;4971570;28;20666;-85
2023/04/17 04:00:11;;;;;;;26.77;23.57;;;;;;;;;;4990377;28;20246;-82
2023/04/17 04:02:50;;;;;;;24.87;22.17;;;;;;;;;;4989207;28;20227;-84
2023/04/17 04:05:21;;;;;;;24.63;21.73;;;;;;;;;;4983730;28;20839;-83
2023/04/17 04:07:47;;;;;;;25.53;22.83;;;;;;;;;;4988854;28;20220;-84
2023/04/17 04:10:22;;;;;;;25.87;23.00;;;;;;;;;;5014325;28;20695;-83
2023/04/17 04:12:50;;;;;;;25.53;22.83;;;;;;;;;;5012362;28;20216;-84
2023/04/17 04:15:19;;;;;;;25.57;22.67;;;;;;;;;;4985899;28;20760;-85
2023/04/17 04:17:51;;;;;;;26.13;23.23;;;;;;;;;;5013304;28;20246;-83
2023/04/17 04:20:17;;;;;;;27.70;23.13;;;;;;;;;;5014665;28;20221;-83
2023/04/17 04:22:43;;;;;;;25.90;23.20;;;;;;;;;;4980597;28;20220;-85
2023/04/17 04:25:14;;;;;;;26.47;23.50;;;;;;;;;;4944155;28;20285;-84
2023/04/17 04:28:12;;;;;;;27.07;23.23;;;;;;;;;;4970766;28;20283;-84
2023/04/17 04:30:40;;;;;;;26.93;23.77;;;;;;;;;;5020439;28;20223;-84
2023/04/17 04:33:14;;;;;;;27.37;22.90;;;;;;;;;;5010932;28;20223;-85
2023/04/17 04:35:50;;;;;;;26.70;23.00;;;;;;;;;;5015877;28;20224;-84
2023/04/17 04:38:17;;;;;;;25.43;22.80;;;;;;;;;;5000752;28;20228;-86
2023/04/17 04:40:51;;;;;;;25.83;23.07;;;;;;;;;;4981736;28;20652;-85
2023/04/17 04:43:17;;;;;;;25.50;22.90;;;;;;;;;;5003867;28;20223;-85
2023/04/17 04:45:46;;;;;;;27.37;22.70;;;;;;;;;;4976605;28;20215;-85
2023/04/17 04:48:15;;;;;;;26.40;22.60;;;;;;;;;;5000273;28;20224;-85
2023/04/17 04:50:42;;;;;;;26.20;22.37;;;;;;;;;;4970247;28;20251;-85
2023/04/17 04:53:11;;;;;;;25.30;22.60;;;;;;;;;;5021197;28;20272;-86
2023/04/17 04:55:45;;;;;;;25.57;22.10;;;;;;;;;;5007272;28;20215;-84
2023/04/17 04:58:11;;;;;;;24.87;22.27;;;;;;;;;;4989978;28;20239;-85
2023/04/17 05:00:37;;;;;;;27.57;22.77;;;;;;;;;;4997949;28;20216;-84
2023/04/17 05:03:03;;;;;;;25.03;22.60;;;;;;;;;;4967954;28;20600;-84
2023/04/17 05:05:29;;;;;;;25.30;22.27;;;;;;;;;;4987547;28;20233;-84
2023/04/17 05:07:57;;;;;;;24.87;22.20;;;;;;;;;;5004069;28;20707;-84
2023/04/17 05:10:29;;;;;;;26.23;21.77;;;;;;;;;;5000517;28;20271;-85
2023/04/17 05:12:59;;;;;;;26.53;22.17;;;;;;;;;;5000976;28;20223;-84
2023/04/17 05:15:25;;;;;;;25.77;21.80;;;;;;;;;;4999295;28;20658;-85
2023/04/17 05:17:51;;;;;;;25.23;22.53;;;;;;;;;;5000160;28;20307;-85
2023/04/17 05:20:20;;;;;;;26.00;22.87;;;;;;;;;;4981560;28;20681;-83
2023/04/17 05:22:50;;;;;;;25.77;23.07;;;;;;;;;;5001430;28;20223;-84
2023/04/17 05:25:18;;;;;;;25.80;22.57;;;;;;;;;;4999682;28;20223;-84
2023/04/17 05:27:45;;;;;;;24.70;21.83;;;;;;;;;;5006643;28;20235;-84
2023/04/17 05:30:13;;;;;;;24.00;21.50;;;;;;;;;;4979114;28;20684;-85
2023/04/17 05:32:41;;;;;;;23.93;21.33;;;;;;;;;;4985547;28;20216;-85
2023/04/17 05:35:32;;;;;;;22.57;20.07;;;;;;;;;;5001796;28;20231;-85
2023/04/17 05:37:58;;;;;;;23.27;20.87;;;;;;;;;;5024873;28;20620;-85
2023/04/17 05:40:26;;;;;;;22.73;20.23;;;;;;;;;;4982995;28;20233;-84
2023/04/17 05:42:51;;;;;;;26.77;22.37;;;;;;;;;;4999765;28;20220;-85
2023/04/17 05:45:19;;;;;;;24.17;21.63;;;;;;;;;;4975007;28;20230;-84
2023/04/17 05:47:47;;;;;;;23.97;21.37;;;;;;;;;;4989848;28;20265;-84
2023/04/17 05:50:13;;;;;;;23.80;20.93;;;;;;;;;;4990631;28;20347;-84
2023/04/17 05:52:39;;;;;;;24.77;21.43;;;;;;;;;;4984615;28;20215;-85
2023/04/17 05:55:09;;;;;;;25.53;21.20;;;;;;;;;;4968317;28;20228;-84
2023/04/17 05:57:36;;;;;;;22.73;20.27;;;;;;;;;;5009511;28;20220;-83
2023/04/17 06:00:07;;;;;;;22.80;20.33;;;;;;;;;;5008473;28;20226;-83
2023/04/17 06:02:42;;;;;;;23.57;20.70;;;;;;;;;;5005877;28;20223;-84
2023/04/17 06:05:12;;;;;;;23.00;20.67;;;;;;;;;;4999290;28;20216;-82
2023/04/17 06:07:41;;;;;;;24.23;20.13;;;;;;;;;;4970065;28;20202;-82
2023/04/17 06:10:14;;;;;;;22.33;19.97;;;;;;;;;;4978320;28;20209;-84
2023/04/17 06:12:41;;;;;;;23.07;20.57;;;;;;;;;;4982845;28;20220;-84
2023/04/17 06:15:10;;;;;;;24.73;19.97;;;;;;;;;;4997822;28;20239;-82
2023/04/17 06:17:38;;;;;;;22.47;19.90;;;;;;;;;;5004600;28;20731;-84
2023/04/17 06:20:23;;;;;;;22.23;19.73;;;;;;;;;;5005440;28;20215;-83
2023/04/17 06:22:49;;;;;;;22.00;19.53;;;;;;;;;;5006367;28;20228;-84
2023/04/17 06:25:18;;;;;;;22.13;19.77;;;;;;;;;;4983040;28;20310;-84
2023/04/17 06:27:45;;;;;;;23.80;18.63;;;;;;;;;;5002449;28;20199;-84
2023/04/17 06:30:12;;;;;;;21.17;18.97;;;;;;;;;;5006576;28;20229;-83
2023/04/17 06:32:46;;;;;;;23.20;18.40;;;;;;;;;;4993181;28;20244;-83
2023/04/17 06:35:12;;;;;;;20.93;18.40;;;;;;;;;;4992727;28;20216;-83
2023/04/17 06:37:43;;;;;;;21.57;18.40;;;;;;;;;;4988917;28;20697;-84
2023/04/17 06:40:11;;;;;;;19.60;17.10;;;;;;;;;;5002126;28;20227;-84
2023/04/17 06:42:39;;;;;;;19.50;17.33;;;;;;;;;;5002937;28;20276;-84
2023/04/17 06:45:12;;;;;;;18.53;16.63;;;;;;;;;;5005606;28;20656;-84
2023/04/17 06:47:41;;;;;;;19.10;15.97;;;;;;;;;;5003955;28;20216;-84
2023/04/17 06:50:07;;;;;;;17.53;15.83;;;;;;;;;;4989529;28;20227;-82
2023/04/17 06:52:35;;;;;;;20.27;16.33;;;;;;;;;;5012485;28;20223;-84
2023/04/17 06:55:03;;;;;;;18.33;16.53;;;;;;;;;;5011793;28;20215;-83
2023/04/17 06:57:32;;;;;;;18.00;16.20;;;;;;;;;;5003535;28;20248;-83
2023/04/17 06:59:58;;;;;;;17.80;16.00;;;;;;;;;;4993037;28;20219;-84
2023/04/17 07:02:24;;;;;;;17.90;16.00;;;;;;;;;;4988730;28;20254;-83
2023/04/17 07:04:52;;;;;;;18.00;16.10;;;;;;;;;;4990145;28;20224;-84
2023/04/17 07:07:18;;;;;;;17.73;15.17;;;;;;;;;;4986071;28;20227;-83
2023/04/17 07:09:47;;;;;;;16.27;14.40;;;;;;;;;;4966791;28;20673;-84
2023/04/17 07:12:14;;;;;;;17.20;15.40;;;;;;;;;;5017920;28;20693;-84
2023/04/17 07:14:42;;;;;;;17.77;15.10;;;;;;;;;;4994594;28;20215;-84
2023/04/17 07:17:12;;;;;;;16.60;14.70;;;;;;;;;;5002088;28;20227;-84
2023/04/17 07:19:38;;;;;;;16.57;14.80;;;;;;;;;;4998944;28;20313;-82
2023/04/17 07:22:08;;;;;;;16.23;14.53;;;;;;;;;;5006956;28;20224;-83
2023/04/17 07:24:34;;;;;;;17.50;14.23;;;;;;;;;;4987859;28;20240;-84
2023/04/17 07:27:03;;;;;;;16.60;15.00;;;;;;;;;;5004353;28;20577;-83
2023/04/17 07:29:28;;;;;;;15.90;14.30;;;;;;;;;;4973860;28;20219;-84
2023/04/17 07:31:54;;;;;;;15.10;13.53;;;;;;;;;;4997563;28;20743;-85
2023/04/17 07:34:20;;;;;;;15.73;14.17;;;;;;;;;;5006172;28;20766;-84
2023/04/17 07:36:48;;;;;;;15.37;13.17;;;;;;;;;;5018656;28;20219;-83
2023/04/17 07:39:14;;;;;;;16.57;13.87;;;;;;;;;;4989781;28;20221;-83
2023/04/17 07:41:39;;;;;;;15.90;12.93;;;;;;;;;;5003661;28;20576;-84
2023/04/17 07:44:07;;;;;;;13.67;12.00;;;;;;;;;;5008034;28;20232;-82
2023/04/17 07:46:36;;;;;;;14.20;12.70;;;;;;;;;;5009892;28;20220;-83
2023/04/17 07:49:04;;;;;;;13.87;12.47;;;;;;;;;;4994307;28;20849;-83
2023/04/17 07:51:30;;;;;;;13.97;12.00;;;;;;;;;;4984669;28;20216;-82
2023/04/17 07:53:58;;;;;;;14.20;10.87;;;;;;;;;;5003023;28;20223;-85
2023/04/17 07:56:30;;;;;;;14.37;11.37;;;;;;;;;;5005638;28;20228;-82
2023/04/17 07:58:58;;;;;;;11.47;10.27;;;;;;;;;;5005681;28;20869;-82
2023/04/17 08:01:27;;;;;;;13.83;10.57;;;;;;;;;;5016366;28;20688;-82
2023/04/17 08:03:56;;;;;;;13.87;10.13;;;;;;;;;;5015411;28;20235;-83
2023/04/17 08:06:22;;;;;;;12.80;10.83;;;;;;;;;;5006589;28;20239;-82
2023/04/17 08:08:52;;;;;;;11.90;10.70;;;;;;;;;;5031281;28;20220;-81
2023/04/17 08:11:18;;;;;;;12.40;11.07;;;;;;;;;;5001778;28;20219;-84
2023/04/17 08:13:45;;;;;;;14.80;11.30;;;;;;;;;;5028501;28;20286;-81
2023/04/17 08:16:11;;;;;;;15.73;11.77;;;;;;;;;;5002909;28;20279;-82
2023/04/17 08:18:40;;;;;;;12.23;10.83;;;;;;;;;;5034673;28;20275;-83
2023/04/17 08:21:11;;;;;;;12.10;10.83;;;;;;;;;;5000587;28;20425;-81
2023/04/17 08:23:41;;;;;;;11.87;10.63;;;;;;;;;;5000663;28;20223;-83
2023/04/17 08:26:07;;;;;;;11.80;10.60;;;;;;;;;;5007183;28;20228;-81
2023/04/17 08:28:37;;;;;;;11.63;10.33;;;;;;;;;;5007360;28;20589;-85
2023/04/17 08:31:07;;;;;;;10.10;8.87;;;;;;;;;;4993819;28;20223;-82
2023/04/17 08:33:35;;;;;;;10.27;8.80;;;;;;;;;;4977137;28;20247;-84
2023/04/17 08:36:02;;;;;;;10.83;9.07;;;;;;;;;;4996393;28;20211;-83
2023/04/17 08:38:33;;;;;;;11.27;9.43;;;;;;;;;;5006488;28;20235;-81
2023/04/17 08:41:04;;;;;;;10.03;9.00;;;;;;;;;;5018131;28;20292;-85
2023/04/17 08:43:30;;;;;;;10.10;9.10;;;;;;;;;;4970877;28;20345;-81
2023/04/17 08:45:55;;;;;;;10.00;8.97;;;;;;;;;;4970652;28;20212;-81
2023/04/17 08:48:23;;;;;;;9.53;8.50;;;;;;;;;;4975298;28;20595;-82
2023/04/17 08:50:51;;;;;;;10.90;8.53;;;;;;;;;;4997585;28;20232;-82
2023/04/17 08:53:19;;;;;;;9.87;8.47;;;;;;;;;;4996885;28;20891;-81
2023/04/17 08:55:45;;;;;;;11.00;7.77;;;;;;;;;;5009588;28;20227;-82
2023/04/17 08:58:12;;;;;;;8.93;7.87;;;;;;;;;;4984336;28;20303;-84
2023/04/17 09:00:41;;;;;;;9.30;8.30;;;;;;;;;;5001668;28;20621;-84
2023/04/17 09:03:09;;;;;;;10.33;8.60;;;;;;;;;;4994223;28;20227;-83
2023/04/17 09:05:42;;;;;;;11.27;8.00;;;;;;;;;;5007807;28;20263;-84
2023/04/17 09:08:16;;;;;;;9.90;8.53;;;;;;;;;;4967340;28;20235;-81
2023/04/17 09:10:42;;;;;;;10.83;8.40;;;;;;;;;;5010504;28;20227;-84
2023/04/17 09:13:14;;;;;;;11.97;8.67;;;;;;;;;;5015434;28;20223;-81
2023/04/17 09:15:45;;;;;;;13.17;8.53;;;;;;;;;;4996190;28;20271;-82
2023/04/17 09:18:34;;;;;;;9.23;8.33;;;;;;;;;;5003596;28;20224;-84
2023/04/17 09:21:02;;;;;;;10.80;9.10;;;;;;;;;;5005125;28;21962;-85
2023/04/17 09:23:45;;;;;;;10.53;8.80;;;;;;;;;;4978546;28;21933;-84
2023/04/17 09:26:12;;;;;;;11.40;9.40;;;;;;;;;;4984073;28;20227;-84
2023/04/17 09:28:42;;;;;;;13.40;9.20;;;;;;;;;;5002471;28;20216;-83
2023/04/17 09:31:19;;;;;;;10.93;8.93;;;;;;;;;;4991501;28;20686;-85
2023/04/17 09:33:58;;;;;;;10.73;8.57;;;;;;;;;;5019192;28;20227;-81
2023/04/17 09:36:26;;;;;;;11.23;9.13;;;;;;;;;;5009917;28;20242;-83
2023/04/17 09:38:58;;;;;;;11.50;8.60;;;;;;;;;;5001085;28;20211;-81
2023/04/17 09:41:26;;;;;;;13.73;9.20;;;;;;;;;;5016196;28;20220;-86
2023/04/17 09:44:04;;;;;;;10.77;8.63;;;;;;;;;;5010539;28;20431;-84
2023/04/17 09:46:40;;;;;;;9.33;8.33;;;;;;;;;;4973697;28;20207;-85
2023/04/17 09:49:14;;;;;;;9.60;8.60;;;;;;;;;;5016075;28;20235;-84
2023/04/17 09:51:40;;;;;;;9.93;8.97;;;;;;;;;;5037514;28;20230;-85
2023/04/17 09:54:07;;;;;;;12.47;8.33;;;;;;;;;;5005345;28;20770;-83
2023/04/17 09:56:34;;;;;;;9.53;8.57;;;;;;;;;;5010480;28;20242;-82
2023/04/17 09:59:01;;;;;;;13.80;9.30;;;;;;;;;;4997766;28;20575;-83
2023/04/17 10:01:28;;;;;;;10.03;8.40;;;;;;;;;;5002984;28;20292;-82
2023/04/17 10:03:56;;;;;;;10.13;8.17;;;;;;;;;;4972477;28;20335;-83
2023/04/17 10:06:21;;;;;;;13.35;8.82;;;;;;;;;;4981388;28;20692;-83
2023/04/17 10:08:47;;;;;;;9.90;7.27;;;;;;;;;;5001808;28;20222;-83
2023/04/17 10:11:13;;;;;;;9.27;6.55;;;;;;;;;;4981768;28;20212;-82
2023/04/17 10:13:48;;;;;;;9.87;7.40;;;;;;;;;;4990801;28;20220;-84
2023/04/17 10:16:15;;;;;;;10.47;6.30;;;;;;;;;;4987760;28;20217;-85
2023/04/17 10:18:43;;;;;;;7.05;5.97;;;;;;;;;;4992786;28;20226;-84
2023/04/17 10:21:21;;;;;;;7.33;5.97;;;;;;;;;;5021023;28;20230;-85
2023/04/17 10:23:49;;;;;;;5.90;5.30;;;;;;;;;;4998788;28;20219;-83
2023/04/17 10:26:23;;;;;;;8.47;5.70;;;;;;;;;;5001408;28;20212;-85
2023/04/17 10:28:50;;;;;;;10.52;5.78;;;;;;;;;;5005552;28;20760;-87
2023/04/17 10:31:18;;;;;;;7.82;5.40;;;;;;;;;;4996771;28;20654;-86
2023/04/17 10:33:51;;;;;;;7.07;5.30;;;;;;;;;;4995971;28;20223;-85
2023/04/17 10:36:35;;;;;;;5.78;5.20;;;;;;;;;;5000266;28;20248;-84
2023/04/17 10:39:12;;;;;;;6.45;5.80;;;;;;;;;;5022234;28;20595;-85
2023/04/17 10:42:06;;;;;;;7.63;6.30;;;;;;;;;;5044315;28;20284;-86
2023/04/17 10:44:44;;;;;;;8.23;6.55;;;;;;;;;;5005916;28;20235;-83
2023/04/17 10:47:13;;;;;;;7.82;7.05;;;;;;;;;;4992466;28;20653;-84
2023/04/17 10:49:51;;;;;;;8.03;6.67;;;;;;;;;;4966025;28;20961;-85
2023/04/17 10:52:32;;;;;;;6.93;6.22;;;;;;;;;;4983624;28;20291;-85
2023/04/17 10:55:21;;;;;;;8.18;6.93;;;;;;;;;;5019151;28;20710;-84
2023/04/17 10:57:51;;;;;;;8.15;7.35;;;;;;;;;;5035086;28;20308;-84
2023/04/17 11:00:17;;;;;;;9.30;7.63;;;;;;;;;;5024342;28;20225;-84
2023/04/17 11:02:46;;;;;;;10.60;9.30;;;;;;;;;;4989554;28;20208;-83
2023/04/17 11:05:18;;;;;;;10.63;9.52;;;;;;;;;;4998199;28;20304;-86
2023/04/17 11:07:49;;;;;;;10.30;8.98;;;;;;;;;;5004407;28;20222;-83
2023/04/17 11:10:19;;;;;;;9.03;8.13;;;;;;;;;;4993513;28;20362;-82
2023/04/17 11:12:50;;;;;;;9.20;8.30;;;;;;;;;;5004791;28;20255;-83
2023/04/17 11:15:29;;;;;;;9.77;8.80;;;;;;;;;;5009980;28;20284;-83
2023/04/17 11:17:55;;;;;;;10.77;9.67;;;;;;;;;;4996151;28;20224;-84
2023/04/17 11:20:27;;;;;;;9.97;8.97;;;;;;;;;;5024444;28;20283;-85
2023/04/17 11:22:52;;;;;;;10.60;8.98;;;;;;;;;;5009534;28;20251;-84
2023/04/17 11:25:22;;;;;;;10.35;8.50;;;;;;;;;;5000377;28;20232;-85
2023/04/17 11:27:57;;;;;;;9.85;8.10;;;;;;;;;;5011694;28;20213;-85
2023/04/17 11:30:37;;;;;;;9.90;8.80;;;;;;;;;;5020141;28;20231;-86
2023/04/17 11:33:06;;;;;;;10.57;7.95;;;;;;;;;;5005280;28;20591;-84
2023/04/17 11:35:35;;;;;;;8.30;7.13;;;;;;;;;;4991732;28;20219;-84
2023/04/17 11:38:05;;;;;;;8.55;6.95;;;;;;;;;;5014439;28;20280;-83
2023/04/17 11:40:33;;;;;;;7.90;6.70;;;;;;;;;;4977160;28;20719;-85
2023/04/17 11:43:07;;;;;;;7.90;6.40;;;;;;;;;;4976800;28;20220;-87
2023/04/17 11:45:35;;;;;;;8.82;7.40;;;;;;;;;;4993521;28;20226;-83
2023/04/17 11:48:03;;;;;;;8.48;7.68;;;;;;;;;;5005775;28;20217;-84
2023/04/17 11:50:29;;;;;;;8.93;7.60;;;;;;;;;;4995164;28;20754;-84
2023/04/17 11:53:01;;;;;;;10.52;8.02;;;;;;;;;;5014792;28;20211;-84
2023/04/17 11:55:30;;;;;;;9.50;7.50;;;;;;;;;;4993579;28;20303;-84
2023/04/17 11:58:04;;;;;;;10.15;6.85;;;;;;;;;;5019879;28;20299;-85
2023/04/17 12:00:30;;;;;;;7.72;6.93;;;;;;;;;;4987807;28;20226;-84
2023/04/17 12:02:59;;;;;;;7.90;7.20;;;;;;;;;;4973590;28;20236;-85
2023/04/17 12:05:27;;;;;;;8.65;7.75;;;;;;;;;;4993035;28;20223;-84
2023/04/17 12:08:01;;;;;;;7.97;7.18;;;;;;;;;;5008784;28;20227;-85
2023/04/17 12:10:42;;;;;;;9.70;8.00;;;;;;;;;;4987666;28;20224;-85
2023/04/17 12:13:13;;;;;;;8.90;7.75;;;;;;;;;;5000817;28;20244;-85
2023/04/17 12:15:43;;;;;;;8.75;7.72;;;;;;;;;;5003911;28;20219;-85
2023/04/17 12:18:11;;;;;;;8.00;7.15;;;;;;;;;;4974474;28;20235;-86
2023/04/17 12:20:39;;;;;;;10.48;7.72;;;;;;;;;;5002973;28;20251;-86
2023/04/17 12:23:14;;;;;;;7.05;6.35;;;;;;;;;;4975632;28;20240;-85
2023/04/17 12:25:44;;;;;;;7.93;6.72;;;;;;;;;;5002346;28;20227;-86
2023/04/17 12:28:12;;;;;;;8.27;6.88;;;;;;;;;;5026228;28;20563;-88
2023/04/17 12:30:42;;;;;;;8.25;6.60;;;;;;;;;;5020551;28;20223;-84
2023/04/17 12:33:08;;;;;;;7.25;6.53;;;;;;;;;;4995297;28;20307;-85
2023/04/17 12:35:34;;;;;;;5.88;4.63;;;;;;;;;;4989713;28;20234;-87
2023/04/17 12:38:02;;;;;;;6.13;4.90;;;;;;;;;;5030504;28;20255;-86
2023/04/17 12:40:32;;;;;;;8.85;6.82;;;;;;;;;;5000060;28;20254;-86
2023/04/17 12:43:00;;;;;;;7.43;6.63;;;;;;;;;;5025602;28;20212;-85
2023/04/17 12:45:26;;;;;;;7.40;6.70;;;;;;;;;;5025740;28;20224;-82
2023/04/17 12:47:52;;;;;;;8.48;6.80;;;;;;;;;;5002590;28;20187;-85
2023/04/17 12:50:21;;;;;;;9.05;7.40;;;;;;;;;;4997417;28;20219;-85
2023/04/17 12:52:46;;;;;;;8.07;6.68;;;;;;;;;;5009277;28;20216;-85
2023/04/17 12:55:12;;;;;;;9.65;6.13;;;;;;;;;;5016066;28;20249;-84
2023/04/17 12:57:38;;;;;;;6.60;5.70;;;;;;;;;;4998831;28;20227;-83
2023/04/17 13:00:07;;;;;;;6.50;5.50;;;;;;;;;;4983792;28;20212;-86
2023/04/17 13:02:32;;;;;;;7.38;5.70;;;;;;;;;;5013797;28;20223;-87
2023/04/17 13:04:58;;;;;;;5.95;5.32;;;;;;;;;;5014271;28;20227;-87
2023/04/17 13:07:30;;;;;;;7.45;5.55;;;;;;;;;;4997026;28;20232;-86
2023/04/17 13:09:56;;;;;;;7.65;5.80;;;;;;;;;;5026708;28;20230;-87
2023/04/17 13:12:21;;;;;;;7.50;5.55;;;;;;;;;;4990379;28;20224;-85
2023/04/17 13:14:49;;;;;;;5.55;5.00;;;;;;;;;;5011108;28;20298;-87
2023/04/17 13:17:17;;;;;;;6.18;4.95;;;;;;;;;;4997007;28;20215;-87
2023/04/17 13:19:43;;;;;;;6.00;5.40;;;;;;;;;;4997360;28;20211;-82
2023/04/17 13:22:11;;;;;;;6.88;5.68;;;;;;;;;;5005211;28;20285;-84
2023/04/17 13:24:40;;;;;;;7.25;5.70;;;;;;;;;;4995650;28;20247;-85
2023/04/17 13:27:06;;;;;;;6.32;5.72;;;;;;;;;;4999049;28;20227;-85
2023/04/17 13:29:34;;;;;;;7.15;5.38;;;;;;;;;;4990664;28;20641;-86
2023/04/17 13:31:59;;;;;;;7.35;6.57;;;;;;;;;;5007151;28;20228;-83
2023/04/17 13:34:28;;;;;;;7.95;5.70;;;;;;;;;;5024855;28;20302;-85
2023/04/17 13:36:53;;;;;;;7.82;5.28;;;;;;;;;;4989107;28;20241;-85
2023/04/17 13:39:19;;;;;;;7.00;5.60;;;;;;;;;;5003797;28;20309;-86
2023/04/17 13:41:45;;;;;;;6.18;5.53;;;;;;;;;;5000969;28;20227;-87
2023/04/17 13:44:13;;;;;;;5.88;5.28;;;;;;;;;;4980403;28;20227;-86
2023/04/17 13:46:43;;;;;;;5.90;5.30;;;;;;;;;;4998604;28;20315;-84
2023/04/17 13:49:11;;;;;;;6.07;5.15;;;;;;;;;;4984370;28;20225;-83
2023/04/17 13:51:37;;;;;;;8.15;6.40;;;;;;;;;;5011770;28;20216;-83
2023/04/17 13:54:05;;;;;;;9.48;5.93;;;;;;;;;;5010458;28;20227;-83
2023/04/17 13:56:34;;;;;;;6.03;5.43;;;;;;;;;;5011119;28;20276;-84
2023/04/17 13:58:59;;;;;;;6.13;5.38;;;;;;;;;;5005503;28;20216;-86
2023/04/17 14:01:25;;;;;;;6.10;5.37;;;;;;;;;;4993706;28;20212;-84
2023/04/17 14:03:53;;;;;;;7.23;6.10;;;;;;;;;;4993623;28;20230;-84
2023/04/17 14:06:21;;;;;;;6.77;6.00;;;;;;;;;;5022895;28;20221;-85
2023/04/17 14:08:49;;;;;;;7.70;5.70;;;;;;;;;;5008305;28;20324;-85
2023/04/17 14:11:18;;;;;;;6.13;5.53;;;;;;;;;;4997093;28;20223;-83
2023/04/17 14:13:45;;;;;;;6.87;5.40;;;;;;;;;;5033321;28;20273;-85
2023/04/17 14:16:13;;;;;;;7.18;5.32;;;;;;;;;;4999782;28;20224;-87
2023/04/17 14:18:39;;;;;;;5.85;4.90;;;;;;;;;;4991357;28;20258;-85
2023/04/17 14:21:04;;;;;;;6.40;4.83;;;;;;;;;;4999557;28;20249;-85
2023/04/17 14:23:30;;;;;;;5.17;4.67;;;;;;;;;;5008961;28;20259;-84
2023/04/17 14:25:58;;;;;;;7.00;5.10;;;;;;;;;;5006783;28;20212;-85
2023/04/17 14:28:23;;;;;;;5.90;4.82;;;;;;;;;;4995840;28;21104;-85
2023/04/17 14:30:51;;;;;;;7.93;4.85;;;;;;;;;;4973909;28;20314;-87
2023/04/17 14:33:20;;;;;;;8.73;5.10;;;;;;;;;;4977080;28;20216;-85
2023/04/17 14:35:46;;;;;;;6.53;5.53;;;;;;;;;;4988260;28;20272;-84